createdAt,value
2019-03-03T00:00:56.137Z,32.80
2019-03-03T00:03:27.688Z,31.97
2019-03-03T00:06:01.374Z,34.07
2019-03-03T00:08:31.873Z,33.60
2019-03-03T00:11:01.483Z,35.73
2019-03-03T00:13:31.393Z,32.67
2019-03-03T00:16:02.708Z,32.23
2019-03-03T00:18:34.112Z,34.07
2019-03-03T00:21:09.647Z,31.10
2019-03-03T00:23:39.072Z,31.43
2019-03-03T00:26:08.822Z,32.75
2019-03-03T00:28:38.199Z,30.17
2019-03-03T00:31:07.598Z,30.83
2019-03-03T00:33:37.572Z,32.27
2019-03-03T00:36:11.625Z,33.45
2019-03-03T00:39:03.698Z,33.20
2019-03-03T00:41:53.645Z,33.90
2019-03-03T00:44:41.988Z,33.70
2019-03-03T00:47:36.745Z,35.17
2019-03-03T00:50:28.759Z,35.88
2019-03-03T00:53:04.674Z,33.73
2019-03-03T00:55:54.526Z,36.20
2019-03-03T00:58:51.983Z,36.53
2019-03-03T01:01:32.412Z,36.27
2019-03-03T01:04:09.781Z,33.77
2019-03-03T01:07:07.338Z,31.13
2019-03-03T01:10:02.198Z,31.50
2019-03-03T01:12:54.540Z,36.00
2019-03-03T01:15:54.548Z,31.80
2019-03-03T01:19:02.643Z,31.50
2019-03-03T01:21:53.961Z,33.02
2019-03-03T01:24:37.075Z,31.37
2019-03-03T01:27:06.453Z,29.33
2019-03-03T01:29:35.858Z,29.77
2019-03-03T01:32:05.771Z,30.08
2019-03-03T01:34:36.255Z,29.65
2019-03-03T01:37:05.763Z,29.20
2019-03-03T01:39:35.294Z,27.82
2019-03-03T01:42:04.922Z,28.03
2019-03-03T01:44:35.786Z,26.73
2019-03-03T01:47:08.211Z,28.57
2019-03-03T01:49:37.887Z,28.47
2019-03-03T01:52:07.556Z,28.57
2019-03-03T01:54:38.237Z,26.50
2019-03-03T01:57:08.035Z,26.80
2019-03-03T01:59:37.658Z,26.83
2019-03-03T02:02:11.485Z,26.02
2019-03-03T02:04:40.920Z,27.02
2019-03-03T02:07:11.534Z,24.07
2019-03-03T02:09:41.022Z,24.00
2019-03-03T02:12:12.993Z,24.83
2019-03-03T02:14:43.092Z,22.45
2019-03-03T02:17:14.243Z,24.98
2019-03-03T02:19:43.653Z,22.60
2019-03-03T02:22:13.047Z,23.53
2019-03-03T02:24:44.816Z,22.42
2019-03-03T02:27:14.314Z,26.20
2019-03-03T02:29:43.737Z,21.10
2019-03-03T02:32:13.367Z,25.10
2019-03-03T02:34:42.793Z,24.02
2019-03-03T02:37:12.195Z,23.97
2019-03-03T02:39:41.672Z,25.60
2019-03-03T02:42:12.844Z,21.87
2019-03-03T02:44:43.461Z,22.10
2019-03-03T02:47:13.162Z,20.92
2019-03-03T02:49:44.022Z,20.65
2019-03-03T02:52:13.406Z,20.00
2019-03-03T02:54:42.922Z,18.70
2019-03-03T02:57:12.739Z,21.05
2019-03-03T02:59:43.988Z,22.55
2019-03-03T03:02:33.630Z,23.32
2019-03-03T03:05:03.624Z,21.97
2019-03-03T03:07:47.367Z,20.23
2019-03-03T03:10:26.444Z,22.30
2019-03-03T03:13:26.943Z,19.03
2019-03-03T03:16:09.133Z,17.93
2019-03-03T03:18:48.479Z,17.62
2019-03-03T03:21:24.537Z,17.57
2019-03-03T03:24:12.884Z,19.37
2019-03-03T03:27:07.322Z,19.27
2019-03-03T03:30:01.226Z,24.47
2019-03-03T03:32:38.415Z,20.03
2019-03-03T03:35:23.369Z,17.98
2019-03-03T03:38:04.774Z,16.57
2019-03-03T03:40:53.307Z,19.55
2019-03-03T03:43:56.904Z,19.50
2019-03-03T03:46:43.267Z,16.30
2019-03-03T03:49:31.532Z,17.75
2019-03-03T03:52:33.803Z,17.67
2019-03-03T03:55:19.429Z,18.93
2019-03-03T03:57:56.724Z,19.33
2019-03-03T04:00:38.232Z,15.87
2019-03-03T04:03:38.651Z,20.55
2019-03-03T04:06:28.760Z,16.17
2019-03-03T04:09:12.513Z,18.23
2019-03-03T04:12:06.868Z,19.30
2019-03-03T04:14:55.541Z,19.70
2019-03-03T04:17:32.934Z,16.03
2019-03-03T04:20:39.809Z,19.53
2019-03-03T04:23:28.992Z,19.27
2019-03-03T04:26:10.534Z,19.13
2019-03-03T04:29:04.697Z,18.80
2019-03-03T04:31:52.018Z,19.97
2019-03-03T04:34:40.315Z,15.83
2019-03-03T04:37:25.361Z,15.30
2019-03-03T04:40:13.642Z,21.77
2019-03-03T04:43:11.173Z,17.63
2019-03-03T04:45:58.782Z,23.63
2019-03-03T04:48:36.420Z,18.00
2019-03-03T04:51:29.151Z,16.33
2019-03-03T04:54:34.389Z,16.27
2019-03-03T04:57:16.974Z,14.83
2019-03-03T05:00:05.537Z,15.40
2019-03-03T05:02:54.285Z,15.30
2019-03-03T05:05:42.808Z,14.50
2019-03-03T05:08:22.865Z,14.87
2019-03-03T05:11:10.243Z,17.47
2019-03-03T05:13:47.710Z,16.80
2019-03-03T05:16:52.917Z,17.12
2019-03-03T05:19:29.521Z,17.33
2019-03-03T05:22:00.733Z,16.63
2019-03-03T05:24:34.354Z,16.87
2019-03-03T05:27:02.746Z,16.33
2019-03-03T05:29:32.179Z,16.10
2019-03-03T05:32:03.875Z,19.90
2019-03-03T05:34:34.431Z,17.07
2019-03-03T05:37:04.264Z,15.43
2019-03-03T05:39:35.679Z,14.57
2019-03-03T05:42:05.179Z,20.63
2019-03-03T05:44:36.364Z,13.60
2019-03-03T05:47:06.051Z,18.05
2019-03-03T05:49:37.364Z,16.83
2019-03-03T05:52:07.752Z,16.43
2019-03-03T05:54:37.335Z,15.03
2019-03-03T05:57:06.762Z,19.07
2019-03-03T05:59:36.356Z,17.30
2019-03-03T06:02:07.506Z,14.63
2019-03-03T06:04:36.910Z,17.07
2019-03-03T06:07:06.486Z,15.43
2019-03-03T06:09:35.942Z,16.17
2019-03-03T06:12:05.570Z,18.97
2019-03-03T06:14:34.989Z,17.87
2019-03-03T06:17:05.583Z,15.43
2019-03-03T06:19:36.434Z,14.63
2019-03-03T06:22:05.837Z,14.97
2019-03-03T06:24:36.561Z,16.57
2019-03-03T06:27:05.958Z,18.00
2019-03-03T06:29:35.501Z,15.30
2019-03-03T06:32:05.197Z,18.70
2019-03-03T06:34:34.566Z,18.33
2019-03-03T06:37:03.961Z,18.17
2019-03-03T06:39:34.634Z,14.80
2019-03-03T06:42:04.024Z,16.53
2019-03-03T06:44:33.454Z,15.23
2019-03-03T06:47:03.178Z,13.53
2019-03-03T06:49:32.575Z,14.10
2019-03-03T06:52:01.948Z,12.37
2019-03-03T06:54:32.526Z,14.53
2019-03-03T06:57:01.916Z,13.80
2019-03-03T06:59:31.367Z,11.77
2019-03-03T07:02:00.881Z,12.13
2019-03-03T07:04:30.911Z,12.18
2019-03-03T07:07:00.765Z,11.55
2019-03-03T07:09:31.692Z,14.67
2019-03-03T07:12:01.190Z,11.03
2019-03-03T07:14:32.707Z,10.90
2019-03-03T07:17:02.163Z,9.83
2019-03-03T07:19:31.567Z,10.97
2019-03-03T07:22:00.981Z,9.73
2019-03-03T07:24:32.021Z,10.88
2019-03-03T07:27:01.420Z,7.40
2019-03-03T07:29:31.842Z,10.47
2019-03-03T07:32:01.426Z,11.67
2019-03-03T07:34:32.707Z,10.57
2019-03-03T07:37:03.675Z,9.57
2019-03-03T07:39:33.461Z,11.10
2019-03-03T07:42:02.851Z,11.87
2019-03-03T07:44:32.293Z,10.93
2019-03-03T07:47:01.730Z,13.47
2019-03-03T07:49:31.139Z,17.53
2019-03-03T07:52:00.940Z,16.25
2019-03-03T07:54:32.398Z,18.37
2019-03-03T07:57:01.815Z,20.90
2019-03-03T07:59:32.358Z,20.90
2019-03-03T08:02:03.558Z,19.57
2019-03-03T08:04:34.797Z,23.93
2019-03-03T08:07:04.252Z,21.73
2019-03-03T08:09:33.733Z,20.30
2019-03-03T08:12:03.090Z,21.37
2019-03-03T08:14:32.923Z,22.43
2019-03-03T08:17:02.407Z,21.97
2019-03-03T08:19:31.830Z,20.77
2019-03-03T08:22:01.221Z,22.13
2019-03-03T08:24:32.985Z,20.80
2019-03-03T08:27:02.392Z,18.43
2019-03-03T08:29:31.875Z,19.73
2019-03-03T08:32:01.481Z,17.17
2019-03-03T08:34:30.976Z,15.90
2019-03-03T08:37:00.894Z,16.77
2019-03-03T08:39:32.090Z,15.32
2019-03-03T08:42:22.313Z,17.93
2019-03-03T08:45:08.447Z,17.17
2019-03-03T08:47:54.271Z,15.58
2019-03-03T08:50:42.268Z,17.27
2019-03-03T08:53:29.259Z,18.87
2019-03-03T08:56:17.879Z,17.87
2019-03-03T08:59:13.370Z,23.32
2019-03-03T09:02:10.754Z,23.70
2019-03-03T09:04:55.151Z,22.75
2019-03-03T09:07:49.653Z,23.23
2019-03-03T09:11:01.636Z,25.27
2019-03-03T09:13:42.527Z,27.13
2019-03-03T09:16:27.959Z,23.97
2019-03-03T09:19:05.760Z,22.97
2019-03-03T09:21:45.485Z,21.67
2019-03-03T09:24:34.292Z,22.87
2019-03-03T09:27:16.655Z,22.20
2019-03-03T09:30:14.262Z,22.15
2019-03-03T09:32:55.170Z,19.50
2019-03-03T09:35:49.949Z,20.13
2019-03-03T09:38:45.080Z,19.77
2019-03-03T09:41:45.770Z,18.93
2019-03-03T09:44:34.084Z,17.80
2019-03-03T09:47:40.967Z,16.33
2019-03-03T09:50:36.878Z,16.60
2019-03-03T09:53:17.681Z,16.23
2019-03-03T09:56:14.878Z,15.33
2019-03-03T09:59:09.455Z,17.10
2019-03-03T10:01:57.756Z,14.87
2019-03-03T10:04:46.098Z,13.33
2019-03-03T10:07:40.621Z,11.80
2019-03-03T10:10:31.616Z,9.43
2019-03-03T10:13:24.599Z,9.60
2019-03-03T10:16:13.109Z,8.47
2019-03-03T10:18:55.501Z,8.30
2019-03-03T10:21:42.922Z,8.70
2019-03-03T10:24:43.317Z,9.63
2019-03-03T10:27:42.349Z,6.90
2019-03-03T10:30:39.634Z,7.27
2019-03-03T10:33:27.320Z,6.60
2019-03-03T10:36:04.450Z,6.53
2019-03-03T10:38:47.410Z,6.40
2019-03-03T10:41:33.289Z,6.15
2019-03-03T10:44:20.565Z,6.23
2019-03-03T10:47:08.902Z,6.30
2019-03-03T10:49:46.195Z,8.40
2019-03-03T10:52:26.352Z,7.25
2019-03-03T10:55:08.430Z,7.83
2019-03-03T10:58:07.259Z,7.93
2019-03-03T11:00:48.211Z,7.87
2019-03-03T11:03:50.152Z,7.43
2019-03-03T11:06:47.287Z,8.90
2019-03-03T11:09:32.633Z,9.13
2019-03-03T11:12:26.514Z,7.17
2019-03-03T11:15:18.480Z,7.97
2019-03-03T11:18:05.928Z,7.90
2019-03-03T11:20:53.425Z,8.38
2019-03-03T11:23:41.188Z,7.70
2019-03-03T11:26:28.514Z,8.53
2019-03-03T11:29:26.409Z,8.17
2019-03-03T11:32:14.712Z,8.77
2019-03-03T11:35:07.346Z,8.35
2019-03-03T11:37:58.513Z,7.73
2019-03-03T11:40:50.602Z,8.50
2019-03-03T11:43:48.238Z,7.80
2019-03-03T11:46:37.628Z,7.20
2019-03-03T11:49:27.965Z,6.67
2019-03-03T11:52:10.158Z,7.00
2019-03-03T11:55:06.561Z,6.67
2019-03-03T11:57:46.203Z,5.80
2019-03-03T12:00:33.505Z,5.25
2019-03-03T12:03:35.171Z,4.90
2019-03-03T12:06:23.666Z,5.13
2019-03-03T12:09:28.846Z,5.07
2019-03-03T12:12:18.981Z,5.13
2019-03-03T12:15:07.410Z,5.00
2019-03-03T12:17:51.756Z,5.28
2019-03-03T12:20:49.464Z,5.60
2019-03-03T12:23:26.460Z,5.65
2019-03-03T12:26:18.187Z,6.20
2019-03-03T12:29:05.538Z,7.30
2019-03-03T12:31:59.967Z,10.23
2019-03-03T12:34:52.064Z,12.23
2019-03-03T12:37:39.609Z,12.10
2019-03-03T12:40:21.307Z,9.23
2019-03-03T12:43:08.246Z,10.03
2019-03-03T12:46:12.945Z,7.23
2019-03-03T12:49:14.091Z,5.93
2019-03-03T12:52:14.480Z,6.00
2019-03-03T12:55:05.953Z,5.23
2019-03-03T12:58:03.781Z,5.43
2019-03-03T13:00:48.031Z,5.50
2019-03-03T13:03:42.658Z,5.47
2019-03-03T13:06:24.314Z,5.23
2019-03-03T13:09:00.638Z,7.10
2019-03-03T13:11:55.076Z,6.93
2019-03-03T13:14:36.078Z,6.83
2019-03-03T13:17:18.990Z,7.40
2019-03-03T13:20:12.082Z,6.10
2019-03-03T13:23:00.991Z,4.80
2019-03-03T13:25:49.765Z,5.45
2019-03-03T13:28:34.561Z,4.83
2019-03-03T13:31:12.676Z,5.23
2019-03-03T13:34:08.503Z,4.70
2019-03-03T13:37:07.749Z,5.10
2019-03-03T13:39:57.702Z,6.13
2019-03-03T13:42:36.182Z,6.47
2019-03-03T13:45:06.682Z,9.13
2019-03-03T13:47:37.985Z,8.18
2019-03-03T13:50:09.660Z,10.30
2019-03-03T13:52:40.525Z,9.95
2019-03-03T13:55:11.394Z,9.28
2019-03-03T13:57:40.980Z,8.20
2019-03-03T14:00:14.596Z,9.23
2019-03-03T14:02:44.052Z,10.10
2019-03-03T14:05:14.890Z,10.77
2019-03-03T14:07:45.745Z,10.78
2019-03-03T14:10:14.887Z,9.37
2019-03-03T14:12:44.688Z,8.40
2019-03-03T14:15:15.939Z,7.40
2019-03-03T14:17:45.718Z,8.08
2019-03-03T14:20:18.309Z,9.05
2019-03-03T14:22:49.794Z,9.57
2019-03-03T14:25:19.425Z,10.75
2019-03-03T14:27:49.328Z,9.97
2019-03-03T14:30:20.901Z,9.85
2019-03-03T14:32:50.324Z,9.70
2019-03-03T14:35:19.879Z,9.47
2019-03-03T14:37:52.098Z,7.40
2019-03-03T14:40:22.304Z,6.67
2019-03-03T14:42:52.138Z,6.87
2019-03-03T14:45:22.280Z,5.47
2019-03-03T14:47:51.811Z,5.10
2019-03-03T14:50:22.499Z,5.63
2019-03-03T14:52:52.141Z,5.47
2019-03-03T14:55:22.598Z,5.90
2019-03-03T14:57:52.077Z,6.10
2019-03-03T15:00:30.898Z,6.57
2019-03-03T15:03:04.948Z,7.43
2019-03-03T15:05:34.446Z,6.43
2019-03-03T15:08:04.200Z,5.90
2019-03-03T15:10:34.864Z,4.63
2019-03-03T15:13:04.501Z,4.33
2019-03-03T15:15:34.612Z,4.33
2019-03-03T15:18:03.980Z,3.60
2019-03-03T15:20:33.993Z,3.60
2019-03-03T15:23:03.831Z,3.33
2019-03-03T15:25:33.192Z,3.57
2019-03-03T15:28:02.874Z,4.43
2019-03-03T15:30:32.396Z,3.40
2019-03-03T15:33:02.806Z,3.43
2019-03-03T15:35:33.989Z,3.57
2019-03-03T15:38:03.935Z,3.67
2019-03-03T15:40:33.423Z,4.10
2019-03-03T15:43:04.419Z,4.40
2019-03-03T15:45:33.807Z,4.03
2019-03-03T15:48:03.290Z,3.40
2019-03-03T15:50:32.924Z,4.17
2019-03-03T15:53:02.305Z,4.17
2019-03-03T15:55:31.742Z,4.57
2019-03-03T15:58:01.843Z,4.43
2019-03-03T16:00:32.221Z,4.70
2019-03-03T16:03:03.319Z,4.90
2019-03-03T16:05:32.761Z,4.70
2019-03-03T16:08:02.148Z,5.97
2019-03-03T16:10:31.733Z,5.78
2019-03-03T16:13:03.773Z,8.23
2019-03-03T16:15:33.014Z,9.60
2019-03-03T16:18:04.978Z,12.20
2019-03-03T16:20:34.483Z,13.33
2019-03-03T16:23:04.902Z,15.33
2019-03-03T16:25:35.420Z,15.93
2019-03-03T16:28:05.139Z,16.70
2019-03-03T16:30:34.525Z,16.37
2019-03-03T16:33:03.990Z,16.27
2019-03-03T16:35:33.690Z,15.80
2019-03-03T16:38:03.103Z,14.10
2019-03-03T16:40:39.483Z,13.80
2019-03-03T16:43:04.792Z,13.03
2019-03-03T16:45:35.289Z,13.60
2019-03-03T16:48:04.805Z,14.23
2019-03-03T16:50:34.420Z,17.77
2019-03-03T16:53:03.835Z,16.03
2019-03-03T16:55:33.273Z,10.90
2019-03-03T16:58:02.735Z,8.33
2019-03-03T17:00:32.125Z,7.70
2019-03-03T17:03:01.864Z,7.42
2019-03-03T17:05:32.857Z,6.87
2019-03-03T17:08:02.331Z,6.23
2019-03-03T17:10:31.840Z,6.25
2019-03-03T17:13:02.021Z,7.00
2019-03-03T17:15:31.791Z,6.17
2019-03-03T17:18:01.898Z,7.78
2019-03-03T17:20:33.302Z,5.90
2019-03-03T17:23:04.182Z,9.00
2019-03-03T17:25:33.995Z,27.67
2019-03-03T17:28:03.604Z,7.23
2019-03-03T17:30:34.804Z,11.10
2019-03-03T17:33:05.551Z,7.63
2019-03-03T17:35:36.524Z,9.90
2019-03-03T17:38:05.923Z,9.18
2019-03-03T17:40:35.322Z,16.00
2019-03-03T17:43:04.867Z,7.43
2019-03-03T17:45:34.371Z,10.47
2019-03-03T17:48:03.764Z,15.03
2019-03-03T17:50:33.399Z,8.37
2019-03-03T17:53:02.809Z,15.93
2019-03-03T17:55:32.182Z,10.47
2019-03-03T17:58:03.139Z,7.58
2019-03-03T18:00:34.614Z,8.70
2019-03-03T18:03:03.987Z,9.13
2019-03-03T18:05:34.736Z,15.20
2019-03-03T18:08:04.099Z,9.70
2019-03-03T18:10:35.383Z,14.33
2019-03-03T18:13:06.120Z,9.43
2019-03-03T18:15:35.480Z,9.00
2019-03-03T18:18:05.950Z,14.83
2019-03-03T18:20:36.713Z,14.60
2019-03-03T18:23:06.111Z,10.63
2019-03-03T18:25:35.715Z,11.43
2019-03-03T18:28:06.225Z,12.20
2019-03-03T18:30:36.097Z,10.97
2019-03-03T18:33:05.459Z,10.90
2019-03-03T18:35:34.912Z,11.40
2019-03-03T18:38:06.114Z,14.77
2019-03-03T18:40:37.357Z,10.63
2019-03-03T18:43:28.674Z,10.90
2019-03-03T18:45:59.145Z,11.70
2019-03-03T18:48:28.530Z,15.93
2019-03-03T18:50:59.782Z,11.90
2019-03-03T18:53:32.759Z,13.97
2019-03-03T18:56:02.327Z,11.80
2019-03-03T18:58:34.204Z,11.93
2019-03-03T19:01:04.858Z,12.07
2019-03-03T19:03:34.350Z,12.43
2019-03-03T19:06:03.933Z,11.60
2019-03-03T19:08:33.477Z,11.53
2019-03-03T19:11:03.985Z,11.33
2019-03-03T19:13:35.499Z,12.07
2019-03-03T19:16:04.875Z,11.70
2019-03-03T19:18:35.682Z,12.60
2019-03-03T19:21:05.341Z,10.80
2019-03-03T19:23:34.720Z,12.53
2019-03-03T19:26:05.626Z,13.73
2019-03-03T19:28:35.190Z,16.10
2019-03-03T19:31:05.294Z,12.73
2019-03-03T19:33:40.357Z,12.40
2019-03-03T19:36:10.918Z,12.70
2019-03-03T19:38:41.714Z,13.03
2019-03-03T19:41:11.132Z,13.22
2019-03-03T19:43:40.745Z,13.13
2019-03-03T19:46:10.190Z,13.10
2019-03-03T19:48:41.399Z,13.75
2019-03-03T19:51:11.199Z,15.13
2019-03-03T19:53:40.720Z,14.37
2019-03-03T19:56:13.186Z,14.68
2019-03-03T19:58:42.900Z,14.03
2019-03-03T20:01:13.657Z,16.30
2019-03-03T20:03:43.051Z,15.10
2019-03-03T20:06:12.649Z,16.67
2019-03-03T20:08:42.072Z,17.17
2019-03-03T20:11:13.013Z,17.07
2019-03-03T20:13:44.754Z,19.20
2019-03-03T20:16:14.165Z,18.87
2019-03-03T20:18:43.564Z,18.83
2019-03-03T20:21:13.297Z,17.80
2019-03-03T20:23:42.752Z,20.10
2019-03-03T20:26:12.147Z,21.55
2019-03-03T20:28:41.738Z,18.75
2019-03-03T20:31:11.113Z,22.03
2019-03-03T20:33:40.491Z,23.77
2019-03-03T20:36:09.977Z,22.80
2019-03-03T20:38:39.479Z,23.20
2019-03-03T20:41:08.880Z,27.35
2019-03-03T20:43:38.638Z,22.60
2019-03-03T20:46:08.047Z,23.53
2019-03-03T20:48:40.509Z,26.42
2019-03-03T20:51:09.987Z,24.13
2019-03-03T20:53:39.398Z,25.00
2019-03-03T20:56:08.791Z,23.75
2019-03-03T20:58:38.384Z,22.93
2019-03-03T21:01:07.783Z,23.27
2019-03-03T21:03:38.369Z,26.13
2019-03-03T21:06:10.257Z,28.20
2019-03-03T21:08:39.678Z,24.47
2019-03-03T21:11:09.172Z,22.32
2019-03-03T21:13:39.782Z,25.30
2019-03-03T21:16:09.178Z,22.13
2019-03-03T21:18:39.758Z,21.30
2019-03-03T21:21:10.539Z,25.00
2019-03-03T21:23:39.911Z,22.52
2019-03-03T21:26:09.331Z,24.93
2019-03-03T21:28:40.523Z,23.65
2019-03-03T21:31:10.020Z,26.77
2019-03-03T21:33:39.413Z,19.85
2019-03-03T21:36:08.861Z,23.40
2019-03-03T21:38:38.261Z,24.97
2019-03-03T21:41:08.957Z,22.33
2019-03-03T21:43:38.478Z,21.07
2019-03-03T21:46:07.879Z,18.33
2019-03-03T21:48:37.523Z,19.90
2019-03-03T21:51:08.298Z,24.30
2019-03-03T21:53:37.750Z,17.17
2019-03-03T21:56:08.151Z,21.73
2019-03-03T21:58:37.764Z,20.05
2019-03-03T22:01:07.903Z,22.17
2019-03-03T22:03:40.332Z,20.13
2019-03-03T22:06:10.053Z,20.63
2019-03-03T22:08:39.452Z,19.30
2019-03-03T22:11:10.300Z,18.62
2019-03-03T22:13:39.742Z,19.77
2019-03-03T22:16:09.217Z,18.37
2019-03-03T22:18:39.828Z,20.72
2019-03-03T22:21:09.565Z,21.12
2019-03-03T22:23:38.969Z,22.17
2019-03-03T22:26:11.470Z,25.17
2019-03-03T22:28:41.156Z,19.17
2019-03-03T22:31:14.180Z,18.05
2019-03-03T22:33:43.581Z,21.17
2019-03-03T22:36:14.122Z,21.73
2019-03-03T22:38:45.321Z,19.00
2019-03-03T22:41:14.847Z,18.90
2019-03-03T22:43:45.699Z,16.03
2019-03-03T22:46:17.604Z,18.45
2019-03-03T22:48:48.890Z,20.05
2019-03-03T22:51:18.373Z,17.30
2019-03-03T22:53:49.973Z,15.70
2019-03-03T22:56:19.392Z,18.15
2019-03-03T22:58:49.185Z,14.60
2019-03-03T23:01:28.555Z,16.40
2019-03-03T23:04:41.848Z,16.07
2019-03-03T23:07:35.648Z,14.57
2019-03-03T23:10:49.152Z,17.13
2019-03-03T23:13:46.161Z,15.93
2019-03-03T23:16:59.044Z,13.70
2019-03-03T23:20:08.340Z,12.87
2019-03-03T23:23:14.706Z,14.50
2019-03-03T23:25:49.026Z,14.73
2019-03-03T23:28:19.112Z,15.93
2019-03-03T23:30:48.908Z,14.73
2019-03-03T23:33:20.583Z,13.05
2019-03-03T23:35:51.609Z,16.97
2019-03-03T23:38:21.334Z,15.57
2019-03-03T23:40:50.739Z,11.93
2019-03-03T23:43:20.535Z,13.77
2019-03-03T23:45:50.062Z,13.33
2019-03-03T23:48:19.484Z,12.77
2019-03-03T23:50:48.965Z,15.43
2019-03-03T23:53:18.536Z,16.30
2019-03-03T23:55:47.970Z,12.35
2019-03-03T23:58:18.811Z,14.37
